Airfield :
LOGIN :

Register | Disclaimer

   EN    FR    IT 

 










Legend :    VFR   Marginal VFR   IFR   Intensive IFR   Very Intensive IFR
Visi :
Ceiling :
>= 8 km
>= 3000ft
5 to 8 km
1000 to 3000 ft
1500m to 5 km
500 to 1000 ft
800 to 1500m
200 to 500 ft
< 800m
< 200 ft
Symbols :   Thunderstorms  Fog  Heavy snow  Heavy precipitations  Wind > 20 kt
SIGMETs :     Misc.  Thunderstorms  Icing  Turbulence  Mountain Waves  Volcanic Ashes






- Airport Elevation : 306 ft
- IATA code : EMA


EGNX - Nottingham East Midlands

CURRENT METAR :
  • 290320Z 02012KT 340V050 CAVOK 03/M03 Q1038

EXPIRED METARs :
  • 290250Z 02011G22KT 340V050 9999 FEW034 03/M04 Q1038
  • 290220Z 02012KT 9999 FEW025 03/M04 Q1038
  • 290150Z 01010KT 340V040 9999 FEW025 03/M03 Q1038
  • 290120Z 01010KT 340V040 9999 FEW025 03/M02 Q1038
  • 290050Z 02012KT 9999 FEW022 03/M01 Q1038

TAF TAF EGNX
Valid from the 29 at 00:00 until the 30 at 00:00 UTC


282258Z 2900/2924 03012KT 9999 SCT025
PROB30
TEMPO 2900/2910 04015G25KT 4000 SHRASN
TEMPO 2910/2918 03018G28KT
PROB30
TEMPO 2910/2918 6000 SHRA
BECMG 2921/2924 33005KT
ATIS : +44 1332 852 852 (ext 3201)



MET'MAP, your aeronautical weather chart ! - Copyright ORBIFLY December 2007 - Disclaimer

ORBIFLY MET'MAP TEAM :

Programming & Development : Alexandra Zaïnal
Concept & original design : Baudouin d'Aumeries
Assistance for programming : Marc-Olivier Méhu
Technical & hardware support : Manuel Goepfert

Contact : metmap@orbifly.com




SOURCES & CREDITS :

   NOAA